Time;durP1;ratioP1;P1;durP2;ratioP2;P2;SDS_P1;SDS_P2;PMS_P1;PMS_P2;Temp;Humidity;BMP_temperature;BMP_pressure;BME280_temperature;BME280_humidity;BME280_pressure;Samples;Min_cycle;Max_cycle;Signal;HPM_P1;HPM_P2
2022/04/14 00:01:43;;;;;;;28.05;20.02;;;12.50;99.90;;;;;;5031258;28;20041;-76
2022/04/14 00:04:09;;;;;;;26.08;19.45;;;12.50;99.90;;;;;;5030995;28;20040;-77
2022/04/14 00:06:34;;;;;;;26.95;20.13;;;12.40;99.90;;;;;;5032731;28;20567;-77
2022/04/14 00:09:00;;;;;;;29.08;20.92;;;12.50;99.90;;;;;;5028289;28;20084;-77
2022/04/14 00:11:26;;;;;;;24.80;19.67;;;12.40;99.90;;;;;;5010597;28;20064;-77
2022/04/14 00:13:51;;;;;;;28.05;20.40;;;12.40;99.90;;;;;;5027440;28;20512;-77
2022/04/14 00:16:17;;;;;;;24.50;21.05;;;12.40;99.90;;;;;;5014943;28;20405;-77
2022/04/14 00:18:43;;;;;;;25.83;20.58;;;12.40;99.90;;;;;;5012171;28;20056;-77
2022/04/14 00:21:08;;;;;;;25.27;19.98;;;12.40;99.90;;;;;;5023144;28;20381;-77
2022/04/14 00:23:34;;;;;;;26.42;20.67;;;12.30;99.90;;;;;;5013643;28;20377;-77
2022/04/14 00:25:59;;;;;;;25.52;19.98;;;12.30;99.90;;;;;;5028724;28;20041;-77
2022/04/14 00:28:25;;;;;;;23.45;19.67;;;12.30;99.90;;;;;;5030375;28;20030;-77
2022/04/14 00:30:51;;;;;;;24.60;19.27;;;12.30;99.90;;;;;;5031768;28;20060;-77
2022/04/14 00:33:17;;;;;;;23.75;18.75;;;12.30;99.90;;;;;;5010785;28;20052;-76
2022/04/14 00:35:46;;;;;;;23.90;19.98;;;12.30;99.90;;;;;;5008826;28;20128;-77
2022/04/14 00:38:11;;;;;;;21.95;19.17;;;12.30;99.90;;;;;;5025326;28;20496;-77
2022/04/14 00:40:37;;;;;;;25.15;19.67;;;12.30;99.90;;;;;;5003373;28;20049;-76
2022/04/14 00:43:03;;;;;;;21.40;18.85;;;12.30;99.90;;;;;;5005953;28;20550;-77
2022/04/14 00:45:28;;;;;;;26.38;22.10;;;12.30;99.90;;;;;;5025634;28;20045;-77
2022/04/14 00:47:54;;;;;;;25.52;22.23;;;12.20;99.90;;;;;;5027344;28;20060;-77
2022/04/14 00:50:20;;;;;;;26.88;22.52;;;12.30;99.90;;;;;;5008945;28;20076;-77
2022/04/14 00:52:48;;;;;;;26.05;21.67;;;12.30;99.90;;;;;;5010339;28;20041;-78
2022/04/14 00:55:14;;;;;;;26.05;22.30;;;12.30;99.90;;;;;;5026072;28;20052;-78
2022/04/14 00:57:43;;;;;;;25.52;22.17;;;12.30;99.90;;;;;;5010351;28;20120;-78
2022/04/14 01:00:09;;;;;;;28.40;22.63;;;12.30;99.90;;;;;;5028095;28;20440;-78
2022/04/14 01:02:35;;;;;;;31.05;24.08;;;12.30;99.90;;;;;;5010399;28;20045;-78
2022/04/14 01:05:01;;;;;;;30.38;23.55;;;12.30;99.90;;;;;;5011854;28;20140;-78
2022/04/14 01:07:28;;;;;;;28.92;24.33;;;12.30;99.90;;;;;;5010956;28;20056;-78
2022/04/14 01:09:55;;;;;;;30.25;24.45;;;12.30;99.90;;;;;;5011205;28;20045;-77
2022/04/14 01:12:21;;;;;;;32.20;24.48;;;12.30;99.90;;;;;;5008673;28;20059;-78
2022/04/14 01:14:47;;;;;;;28.27;25.08;;;12.30;99.90;;;;;;5029405;28;20049;-78
2022/04/14 01:17:12;;;;;;;30.00;25.50;;;12.30;99.90;;;;;;5026524;28;20049;-78
2022/04/14 01:19:39;;;;;;;28.25;23.95;;;12.30;99.90;;;;;;5010900;28;20045;-78
2022/04/14 01:22:15;;;;;;;28.80;24.35;;;12.30;99.90;;;;;;5030364;28;20111;-78
2022/04/14 01:24:41;;;;;;;29.92;24.73;;;12.30;99.90;;;;;;5029292;28;20312;-78
2022/04/14 01:27:08;;;;;;;34.83;26.20;;;12.20;99.90;;;;;;5027476;28;20077;-78
2022/04/14 01:29:34;;;;;;;30.50;24.55;;;12.20;99.90;;;;;;5027782;28;20540;-78
2022/04/14 01:32:03;;;;;;;35.28;25.58;;;12.20;99.90;;;;;;5028548;28;20080;-78
2022/04/14 01:34:30;;;;;;;28.98;23.92;;;12.20;99.90;;;;;;5026559;28;20033;-78
2022/04/14 01:37:00;;;;;;;29.67;25.43;;;12.10;99.90;;;;;;5010181;28;20053;-78
2022/04/14 01:39:26;;;;;;;28.05;24.50;;;12.10;99.90;;;;;;5026960;28;20081;-78
2022/04/14 01:41:52;;;;;;;30.73;24.55;;;12.00;99.90;;;;;;5008453;28;20037;-78
2022/04/14 01:44:18;;;;;;;29.13;24.13;;;12.00;99.90;;;;;;5007943;28;20186;-78
2022/04/14 01:46:43;;;;;;;25.90;23.08;;;12.00;99.90;;;;;;5008103;28;20059;-78
2022/04/14 01:49:09;;;;;;;28.77;24.63;;;11.90;99.90;;;;;;5024343;28;20072;-78
2022/04/14 01:51:35;;;;;;;25.60;22.52;;;11.80;99.90;;;;;;5010688;28;20511;-78
2022/04/14 01:54:01;;;;;;;29.45;24.40;;;11.80;99.90;;;;;;5027455;28;20048;-78
2022/04/14 01:56:27;;;;;;;28.85;24.13;;;11.80;99.90;;;;;;5010443;28;20045;-79
2022/04/14 01:58:53;;;;;;;28.63;25.13;;;11.70;99.90;;;;;;5024515;28;20049;-78
2022/04/14 02:01:19;;;;;;;32.28;26.40;;;11.60;99.90;;;;;;5027186;28;20553;-78
2022/04/14 02:03:44;;;;;;;35.15;26.00;;;11.70;99.90;;;;;;5006887;28;20049;-78
2022/04/14 02:06:10;;;;;;;28.15;25.15;;;11.60;99.90;;;;;;5012662;28;20049;-79
2022/04/14 02:08:36;;;;;;;29.02;25.40;;;11.60;99.90;;;;;;5027315;28;20095;-78
2022/04/14 02:11:02;;;;;;;26.75;23.55;;;11.60;99.90;;;;;;5010845;28;20412;-78
2022/04/14 02:13:30;;;;;;;30.40;25.15;;;11.60;99.90;;;;;;5007816;28;20046;-78
2022/04/14 02:15:55;;;;;;;30.70;27.13;;;11.50;99.90;;;;;;5029946;28;20038;-79
2022/04/14 02:18:21;;;;;;;28.30;24.73;;;11.50;99.90;;;;;;5007361;28;20783;-78
2022/04/14 02:20:47;;;;;;;30.88;26.48;;;11.50;99.90;;;;;;5024959;28;20041;-78
2022/04/14 02:23:12;;;;;;;34.22;28.75;;;11.40;99.90;;;;;;5021156;28;20049;-78
2022/04/14 02:25:38;;;;;;;34.20;27.80;;;11.40;99.90;;;;;;5009021;28;20034;-78
2022/04/14 02:28:04;;;;;;;31.77;26.50;;;11.40;99.90;;;;;;5010106;28;20041;-78
2022/04/14 02:30:30;;;;;;;30.17;26.98;;;11.40;99.90;;;;;;5008732;28;20189;-78
2022/04/14 02:32:56;;;;;;;35.90;30.00;;;11.40;99.90;;;;;;5009330;28;20535;-78
2022/04/14 02:35:21;;;;;;;35.95;28.55;;;11.40;99.90;;;;;;5024450;28;20049;-78
2022/04/14 02:37:47;;;;;;;36.22;28.52;;;11.30;99.90;;;;;;5026386;28;20047;-78
2022/04/14 02:40:13;;;;;;;35.83;30.35;;;11.30;99.90;;;;;;5008752;28;20072;-78
2022/04/14 02:42:40;;;;;;;38.58;31.73;;;11.30;99.90;;;;;;5008478;28;20130;-78
2022/04/14 02:45:06;;;;;;;36.22;29.50;;;11.30;99.90;;;;;;5024535;28;20041;-78
2022/04/14 02:47:32;;;;;;;33.50;27.55;;;11.30;99.90;;;;;;5007384;28;20681;-78
2022/04/14 02:49:58;;;;;;;32.90;29.03;;;11.30;99.90;;;;;;5017863;28;20125;-78
2022/04/14 02:52:24;;;;;;;35.50;28.98;;;11.20;99.90;;;;;;5028694;28;20643;-78
2022/04/14 02:54:50;;;;;;;33.95;28.45;;;11.20;99.90;;;;;;5031174;28;20041;-78
2022/04/14 02:57:15;;;;;;;32.10;27.23;;;11.20;99.90;;;;;;5010695;28;20055;-78
2022/04/14 02:59:41;;;;;;;36.75;29.92;;;11.20;99.90;;;;;;5031156;28;20534;-76
2022/04/14 03:02:06;;;;;;;34.75;29.67;;;11.10;99.90;;;;;;5030909;28;20065;-77
2022/04/14 03:04:32;;;;;;;35.95;28.80;;;11.10;99.90;;;;;;5027595;28;20042;-77
2022/04/14 03:06:58;;;;;;;35.05;29.75;;;11.10;99.90;;;;;;5031075;28;20041;-77
2022/04/14 03:09:26;;;;;;;29.98;26.52;;;11.00;99.90;;;;;;5032969;28;20030;-77
2022/04/14 03:11:52;;;;;;;31.55;27.80;;;11.00;99.90;;;;;;5033041;28;20049;-77
2022/04/14 03:14:18;;;;;;;33.05;28.40;;;10.90;99.90;;;;;;5029231;28;20049;-78
2022/04/14 03:16:43;;;;;;;30.75;26.48;;;10.90;99.90;;;;;;5031789;28;20527;-77
2022/04/14 03:19:09;;;;;;;32.17;27.42;;;10.80;99.90;;;;;;5028741;28;20077;-77
2022/04/14 03:21:35;;;;;;;30.92;27.63;;;10.80;99.90;;;;;;5022857;28;20481;-77
2022/04/14 03:24:00;;;;;;;29.83;26.63;;;10.80;99.90;;;;;;5012752;28;20052;-77
2022/04/14 03:26:26;;;;;;;29.92;25.88;;;10.70;99.90;;;;;;5029598;28;20053;-77
2022/04/14 03:28:52;;;;;;;29.15;25.73;;;10.70;99.90;;;;;;5033189;28;20041;-77
2022/04/14 03:31:17;;;;;;;26.10;23.30;;;10.60;99.90;;;;;;5006898;28;20048;-77
2022/04/14 03:33:43;;;;;;;28.83;25.73;;;10.60;99.90;;;;;;5032360;28;20412;-77
2022/04/14 03:36:08;;;;;;;41.40;27.77;;;10.50;99.90;;;;;;5030246;28;20489;-77
2022/04/14 03:38:34;;;;;;;29.83;25.30;;;10.50;99.90;;;;;;5009101;28;20678;-77
2022/04/14 03:41:02;;;;;;;30.67;26.52;;;10.50;99.90;;;;;;5026940;28;20128;-78
2022/04/14 03:43:28;;;;;;;31.15;26.92;;;10.50;99.90;;;;;;5012118;28;20091;-77
2022/04/14 03:45:54;;;;;;;31.58;27.17;;;10.40;99.90;;;;;;5030336;28;20444;-76
2022/04/14 03:48:19;;;;;;;37.70;30.27;;;10.50;99.90;;;;;;5013170;28;20075;-77
2022/04/14 03:50:45;;;;;;;33.88;27.70;;;10.40;99.90;;;;;;5030696;28;20107;-78
2022/04/14 03:53:10;;;;;;;41.67;33.35;;;10.40;99.90;;;;;;5028311;28;20042;-77
2022/04/14 03:55:36;;;;;;;60.70;32.78;;;10.40;99.90;;;;;;5028558;28;20116;-77
2022/04/14 03:58:02;;;;;;;36.78;29.60;;;10.40;99.90;;;;;;5027370;28;20095;-77
2022/04/14 04:00:27;;;;;;;38.20;30.08;;;10.40;99.90;;;;;;5029239;28;20042;-77
2022/04/14 04:02:53;;;;;;;35.35;31.48;;;10.40;99.90;;;;;;5016664;28;20187;-77
2022/04/14 04:05:18;;;;;;;43.63;34.55;;;10.40;99.90;;;;;;5037410;28;20048;-77
2022/04/14 04:07:44;;;;;;;49.03;38.33;;;10.50;99.90;;;;;;5030215;28;20045;-77
2022/04/14 04:10:09;;;;;;;43.55;37.65;;;10.50;99.90;;;;;;5027090;28;20389;-78
2022/04/14 04:12:35;;;;;;;47.40;38.08;;;10.50;99.90;;;;;;5028687;28;20041;-77
2022/04/14 04:15:00;;;;;;;44.50;37.22;;;10.50;99.90;;;;;;5028078;28;20045;-77
2022/04/14 04:17:26;;;;;;;49.10;40.42;;;10.50;99.90;;;;;;5010686;28;20421;-77
2022/04/14 04:19:52;;;;;;;51.42;40.25;;;10.60;99.90;;;;;;5011558;28;20076;-77
2022/04/14 04:22:20;;;;;;;46.45;37.53;;;10.60;99.90;;;;;;5007837;28;20045;-77
2022/04/14 04:24:46;;;;;;;46.60;37.17;;;10.60;99.90;;;;;;5028368;28;20056;-77
2022/04/14 04:27:11;;;;;;;49.03;36.30;;;10.60;99.90;;;;;;5008472;28;20640;-77
2022/04/14 04:29:37;;;;;;;44.70;36.28;;;10.60;99.90;;;;;;5026064;28;20061;-77
2022/04/14 04:32:02;;;;;;;42.75;36.85;;;10.60;99.90;;;;;;5028562;28;20440;-78
2022/04/14 04:34:28;;;;;;;39.30;33.63;;;10.50;99.90;;;;;;5032984;28;20041;-78
2022/04/14 04:36:54;;;;;;;40.55;33.63;;;10.60;99.90;;;;;;5029863;28;20092;-78
2022/04/14 04:39:19;;;;;;;43.78;34.55;;;10.50;99.90;;;;;;5010717;28;20093;-77
2022/04/14 04:41:45;;;;;;;51.97;34.05;;;10.40;99.90;;;;;;5008438;28;20042;-78
2022/04/14 04:44:11;;;;;;;49.10;33.10;;;10.40;99.90;;;;;;5008053;28;20057;-78
2022/04/14 04:46:36;;;;;;;40.40;31.25;;;10.30;99.90;;;;;;5025459;28;20045;-78
2022/04/14 04:49:02;;;;;;;35.70;30.10;;;10.30;99.90;;;;;;5029225;28;20085;-78
2022/04/14 04:51:28;;;;;;;116.28;32.15;;;10.20;99.90;;;;;;5028382;28;20046;-78
2022/04/14 04:53:54;;;;;;;55.45;25.55;;;10.10;99.90;;;;;;5012191;28;20050;-77
2022/04/14 04:56:19;;;;;;;89.88;30.30;;;10.10;99.90;;;;;;5010892;28;20048;-78
2022/04/14 04:58:46;;;;;;;31.88;27.15;;;10.00;99.90;;;;;;5010750;28;20456;-78
2022/04/14 05:01:12;;;;;;;42.70;31.00;;;10.00;99.90;;;;;;4999306;28;20053;-77
2022/04/14 05:03:40;;;;;;;43.63;31.70;;;10.00;99.90;;;;;;5007143;28;20053;-77
2022/04/14 05:06:06;;;;;;;50.35;29.55;;;9.90;99.90;;;;;;5024488;28;20045;-78
2022/04/14 05:08:31;;;;;;;51.25;34.00;;;9.90;99.90;;;;;;5013418;28;20124;-77
2022/04/14 05:10:57;;;;;;;47.33;38.25;;;9.90;99.90;;;;;;5010709;28;20040;-77
2022/04/14 05:13:23;;;;;;;46.67;37.97;;;9.90;99.90;;;;;;5028861;28;20033;-77
2022/04/14 05:15:48;;;;;;;58.00;39.38;;;10.00;99.90;;;;;;5026105;28;20049;-77
2022/04/14 05:18:14;;;;;;;46.85;34.72;;;9.90;99.90;;;;;;5029270;28;20533;-77
2022/04/14 05:20:42;;;;;;;42.05;34.33;;;10.00;99.90;;;;;;5008669;28;20046;-79
2022/04/14 05:23:11;;;;;;;44.03;36.25;;;10.00;99.90;;;;;;5028724;28;20076;-78
2022/04/14 05:25:39;;;;;;;45.40;38.03;;;9.90;99.90;;;;;;5024971;28;20033;-77
2022/04/14 05:28:05;;;;;;;45.53;37.78;;;9.90;99.90;;;;;;5028763;28;20516;-77
2022/04/14 05:30:31;;;;;;;45.53;39.65;;;9.90;99.90;;;;;;5008411;28;20037;-77
2022/04/14 05:32:56;;;;;;;50.47;41.85;;;10.00;99.90;;;;;;5027922;28;20666;-77
2022/04/14 05:35:22;;;;;;;47.90;37.70;;;10.00;99.90;;;;;;5011618;28;20507;-77
2022/04/14 05:37:48;;;;;;;47.83;39.65;;;10.00;99.90;;;;;;5027926;28;20045;-77
2022/04/14 05:40:14;;;;;;;46.58;39.85;;;10.00;99.90;;;;;;5011058;28;20539;-79
2022/04/14 05:42:46;;;;;;;44.85;39.35;;;10.00;99.90;;;;;;5010139;28;20056;-79
2022/04/14 05:45:13;;;;;;;46.92;40.47;;;10.00;99.90;;;;;;5011938;28;20061;-79
2022/04/14 05:47:38;;;;;;;51.78;43.35;;;10.00;99.90;;;;;;5028017;28;20049;-77
2022/04/14 05:50:04;;;;;;;52.38;43.30;;;10.00;99.90;;;;;;5010301;28;20163;-77
2022/04/14 05:52:30;;;;;;;57.30;44.60;;;10.10;99.90;;;;;;5010339;28;20064;-77
2022/04/14 05:54:58;;;;;;;48.38;40.97;;;10.00;99.90;;;;;;5009088;28;20642;-77
2022/04/14 05:57:23;;;;;;;48.65;41.80;;;10.10;99.90;;;;;;5028180;28;20545;-77
2022/04/14 05:59:49;;;;;;;54.50;44.28;;;10.10;99.90;;;;;;5026127;28;20041;-81
2022/04/14 06:02:15;;;;;;;52.45;43.92;;;10.10;99.90;;;;;;5004686;28;20049;-77
2022/04/14 06:04:40;;;;;;;55.97;45.33;;;10.20;99.90;;;;;;5027827;28;20053;-77
2022/04/14 06:07:06;;;;;;;51.83;43.20;;;10.30;99.90;;;;;;5027316;28;20172;-78
2022/04/14 06:09:31;;;;;;;51.08;43.35;;;10.30;99.90;;;;;;5024072;28;20038;-79
2022/04/14 06:11:58;;;;;;;51.42;44.67;;;10.30;99.90;;;;;;4999544;28;20110;-79
2022/04/14 06:14:25;;;;;;;58.28;47.08;;;10.30;99.90;;;;;;5021180;28;20485;-79
2022/04/14 06:16:50;;;;;;;58.30;46.80;;;10.30;99.90;;;;;;5026993;28;20473;-79
2022/04/14 06:19:16;;;;;;;57.10;45.75;;;10.40;99.90;;;;;;5008399;28;20060;-79
2022/04/14 06:21:42;;;;;;;58.20;47.50;;;10.50;99.90;;;;;;5028453;28;20041;-79
2022/04/14 06:24:08;;;;;;;58.75;47.40;;;10.60;99.90;;;;;;5027803;28;20485;-79
2022/04/14 06:26:33;;;;;;;55.35;46.10;;;10.60;99.90;;;;;;5013187;28;20132;-78
2022/04/14 06:28:59;;;;;;;58.08;46.70;;;10.70;99.90;;;;;;5011450;28;20079;-77
2022/04/14 06:31:25;;;;;;;58.33;47.15;;;10.80;99.90;;;;;;5011424;28;20045;-78
2022/04/14 06:33:50;;;;;;;53.60;46.15;;;10.90;99.90;;;;;;5029793;28;20405;-78
2022/04/14 06:36:16;;;;;;;57.17;47.65;;;10.90;99.90;;;;;;5030949;28;20046;-78
2022/04/14 06:38:42;;;;;;;59.92;50.63;;;11.00;99.90;;;;;;5012699;28;20046;-78
2022/04/14 06:41:07;;;;;;;61.28;49.40;;;11.10;99.90;;;;;;5028749;28;20523;-78
2022/04/14 06:43:33;;;;;;;62.38;50.92;;;11.20;99.90;;;;;;5025579;28;20045;-76
2022/04/14 06:46:03;;;;;;;57.70;48.15;;;11.30;99.90;;;;;;5004768;28;20441;-76
2022/04/14 06:48:30;;;;;;;59.88;49.10;;;11.30;99.90;;;;;;5012567;28;20049;-76
2022/04/14 06:50:55;;;;;;;60.30;49.60;;;11.40;99.90;;;;;;5027064;28;20050;-76
2022/04/14 06:53:21;;;;;;;62.80;49.17;;;11.50;99.90;;;;;;5030057;28;20057;-76
2022/04/14 06:55:50;;;;;;;62.28;49.28;;;11.60;99.90;;;;;;5010315;28;20051;-76
2022/04/14 06:58:16;;;;;;;62.25;50.38;;;11.60;99.90;;;;;;5031338;28;20049;-76
2022/04/14 07:00:41;;;;;;;61.55;47.97;;;11.70;99.90;;;;;;5029213;28;20041;-76
2022/04/14 07:03:07;;;;;;;63.58;49.42;;;11.70;99.90;;;;;;5031573;28;20049;-76
2022/04/14 07:05:33;;;;;;;60.40;48.35;;;11.80;99.90;;;;;;5027950;28;20527;-77
2022/04/14 07:07:58;;;;;;;60.88;47.75;;;11.80;99.90;;;;;;5028408;28;20045;-77
2022/04/14 07:10:27;;;;;;;54.30;45.63;;;11.90;99.90;;;;;;5010136;28;20625;-75
2022/04/14 07:12:53;;;;;;;55.90;46.10;;;12.00;99.90;;;;;;5034649;28;20045;-75
2022/04/14 07:15:18;;;;;;;55.50;46.10;;;12.00;99.90;;;;;;5030874;28;20633;-76
2022/04/14 07:17:44;;;;;;;54.85;46.35;;;12.10;99.90;;;;;;5013836;28;20132;-76
2022/04/14 07:20:10;;;;;;;54.05;45.50;;;12.10;99.90;;;;;;5026713;28;20042;-76
2022/04/14 07:22:43;;;;;;;54.20;45.47;;;12.20;99.90;;;;;;5017979;28;20099;-76
2022/04/14 07:25:09;;;;;;;55.63;46.00;;;12.30;99.90;;;;;;5011624;28;20397;-76
2022/04/14 07:27:35;;;;;;;56.15;44.05;;;12.30;99.90;;;;;;5023699;28;20129;-75
2022/04/14 07:30:00;;;;;;;50.97;42.92;;;12.40;99.90;;;;;;5030190;28;20124;-76
2022/04/14 07:32:37;;;;;;;50.38;43.15;;;12.50;99.90;;;;;;5008298;28;20548;-75
2022/04/14 07:35:04;;;;;;;52.17;44.13;;;12.50;99.90;;;;;;5009278;28;20100;-76
2022/04/14 07:37:31;;;;;;;53.53;41.63;;;12.50;99.90;;;;;;5030519;28;20045;-76
2022/04/14 07:39:56;;;;;;;49.88;41.35;;;12.70;99.90;;;;;;5018802;28;20136;-76
2022/04/14 07:42:29;;;;;;;48.35;40.35;;;12.70;99.90;;;;;;5033292;28;20140;-82
2022/04/14 07:44:55;;;;;;;49.15;39.63;;;12.70;99.90;;;;;;5011736;28;20049;-80
2022/04/14 07:47:20;;;;;;;47.03;38.88;;;12.70;99.90;;;;;;5007618;28;20060;-82
2022/04/14 07:49:46;;;;;;;43.17;37.00;;;12.80;99.90;;;;;;5009876;28;20156;-85
2022/04/14 07:52:15;;;;;;;46.15;36.92;;;12.90;99.90;;;;;;5030416;28;20488;-82
2022/04/14 07:54:40;;;;;;;47.80;39.33;;;12.90;99.90;;;;;;5030506;28;20053;-82
2022/04/14 07:57:06;;;;;;;45.88;38.50;;;13.00;99.90;;;;;;5013585;28;20080;-79
2022/04/14 07:59:31;;;;;;;44.10;36.92;;;13.00;99.90;;;;;;5012338;28;20067;-80
2022/04/14 08:02:00;;;;;;;39.33;34.05;;;13.10;99.90;;;;;;5029877;28;20423;-82
2022/04/14 08:04:26;;;;;;;40.08;35.60;;;13.20;99.90;;;;;;5013411;28;20132;-83
2022/04/14 08:06:52;;;;;;;41.65;33.55;;;13.30;99.90;;;;;;5032554;28;20046;-78
2022/04/14 08:09:20;;;;;;;40.10;34.95;;;13.30;99.90;;;;;;5029515;28;20132;-79
2022/04/14 08:11:46;;;;;;;37.97;31.58;;;13.40;99.90;;;;;;5018664;28;20502;-76
2022/04/14 08:14:12;;;;;;;40.72;34.10;;;13.40;99.90;;;;;;5028816;28;20408;-78
2022/04/14 08:16:37;;;;;;;37.08;32.53;;;13.50;99.90;;;;;;5031201;28;20046;-77
2022/04/14 08:19:03;;;;;;;36.90;31.20;;;13.60;99.90;;;;;;5032039;28;20033;-77
2022/04/14 08:21:29;;;;;;;34.50;29.38;;;13.60;99.90;;;;;;5030039;28;20045;-78
2022/04/14 08:23:55;;;;;;;33.03;28.75;;;13.60;99.90;;;;;;5009546;28;20133;-80
2022/04/14 08:26:21;;;;;;;35.05;29.55;;;13.70;99.90;;;;;;5039194;28;20034;-78
2022/04/14 08:28:47;;;;;;;37.72;31.30;;;13.80;99.90;;;;;;5029600;28;20045;-78
2022/04/14 08:31:14;;;;;;;34.88;29.67;;;13.80;99.90;;;;;;5032645;28;20439;-78
2022/04/14 08:33:40;;;;;;;39.47;29.98;;;14.00;99.90;;;;;;5008386;28;20420;-77
2022/04/14 08:36:12;;;;;;;32.10;27.00;;;14.10;99.90;;;;;;5011479;28;20115;-81
2022/04/14 08:38:41;;;;;;;35.28;28.52;;;14.20;99.90;;;;;;5012801;28;20064;-78
2022/04/14 08:41:13;;;;;;;31.77;26.58;;;14.20;99.90;;;;;;5030052;28;20045;-84
2022/04/14 08:43:58;;;;;;;29.25;26.00;;;14.30;99.90;;;;;;5012472;28;20042;-86
2022/04/14 08:46:27;;;;;;;28.88;23.15;;;14.40;99.90;;;;;;5030334;28;20068;-79
2022/04/14 08:48:56;;;;;;;27.13;24.20;;;14.50;99.90;;;;;;5031253;28;20532;-82
2022/04/14 08:51:22;;;;;;;24.77;20.58;;;14.60;99.90;;;;;;5030915;28;20053;-77
2022/04/14 08:53:51;;;;;;;27.30;22.63;;;14.70;99.90;;;;;;5035319;28;20045;-76
2022/04/14 08:56:21;;;;;;;26.00;21.92;;;14.70;99.90;;;;;;5025709;28;20049;-79
2022/04/14 08:58:48;;;;;;;26.95;23.45;;;14.80;99.90;;;;;;5013980;28;20072;-77
2022/04/14 09:01:14;;;;;;;;;;;14.80;99.90;;;;;;5034846;28;20037;-77
2022/04/14 09:03:43;;;;;;;24.35;19.88;;;14.80;99.90;;;;;;5029257;28;19917;-78
2022/04/14 09:06:09;;;;;;;28.15;22.63;;;14.90;99.90;;;;;;5030472;28;20048;-80
2022/04/14 09:08:34;;;;;;;25.15;22.35;;;15.00;99.90;;;;;;5028722;28;20052;-78
2022/04/14 09:11:01;;;;;;;22.00;19.55;;;15.10;99.90;;;;;;5025110;28;20044;-79
2022/04/14 09:13:27;;;;;;;24.30;20.80;;;15.10;99.90;;;;;;5028262;28;20519;-77
2022/04/14 09:15:53;;;;;;;21.77;19.08;;;15.10;99.90;;;;;;5010648;28;20041;-77
2022/04/14 09:18:19;;;;;;;21.88;19.38;;;15.30;99.90;;;;;;5025495;28;20048;-77
2022/04/14 09:20:48;;;;;;;21.88;19.42;;;15.30;99.90;;;;;;5011604;28;20145;-77
2022/04/14 09:23:25;;;;;;;24.00;21.00;;;15.40;99.90;;;;;;5028826;28;20041;-77
2022/04/14 09:26:14;;;;;;;21.30;19.10;;;15.40;99.90;;;;;;5030373;28;20048;-77
2022/04/14 09:29:00;;;;;;;32.17;21.45;;;15.50;99.90;;;;;;5030532;28;20048;-80
2022/04/14 09:31:27;;;;;;;22.48;19.05;;;15.60;99.90;;;;;;5037364;28;20067;-86
2022/04/14 09:33:53;;;;;;;24.88;20.63;;;15.70;99.90;;;;;;4999517;28;20544;-81
2022/04/14 09:36:20;;;;;;;21.52;18.92;;;15.70;99.90;;;;;;5029200;28;20041;-79
2022/04/14 09:38:59;;;;;;;25.20;19.92;;;15.80;99.90;;;;;;5001186;28;20054;-77
2022/04/14 09:41:39;;;;;;;22.67;20.25;;;15.80;99.90;;;;;;4991958;28;20046;-80
2022/04/14 09:44:09;;;;;;;22.92;20.52;;;15.90;99.90;;;;;;5009665;28;20516;-81
2022/04/14 09:46:35;;;;;;;;;;;16.00;99.90;;;;;;5028611;28;20053;-79
2022/04/14 09:49:12;;;;;;;20.98;18.77;;;16.00;99.90;;;;;;5029298;28;20234;-80
2022/04/14 09:51:41;;;;;;;21.63;19.00;;;16.00;99.90;;;;;;5027447;28;20084;-80
2022/04/14 09:54:16;;;;;;;21.38;19.27;;;16.10;99.90;;;;;;5024248;28;20053;-80
2022/04/14 09:56:53;;;;;;;21.77;18.88;;;16.20;99.90;;;;;;5009704;28;20135;-80
2022/04/14 09:59:29;;;;;;;20.83;18.05;;;16.20;99.90;;;;;;5009836;28;20069;-81
2022/04/14 10:02:10;;;;;;;18.53;16.63;;;16.20;99.90;;;;;;5002219;28;20053;-80
2022/04/14 10:04:44;;;;;;;20.33;18.23;;;16.20;99.90;;;;;;5012862;28;20072;-81
2022/04/14 10:07:19;;;;;;;20.17;17.98;;;16.30;99.90;;;;;;5029509;28;20136;-83
2022/04/14 10:09:48;;;;;;;20.10;18.02;;;16.30;99.90;;;;;;5034091;28;20063;-87
2022/04/14 10:12:19;;;;;;;20.50;17.70;;;16.30;99.90;;;;;;5038863;28;20055;-84
2022/04/14 10:15:04;;;;;;;20.45;18.33;;;16.40;99.90;;;;;;5033168;28;20489;-82
2022/04/14 10:17:38;;;;;;;20.15;18.15;;;16.40;99.90;;;;;;5035338;28;20116;-83
2022/04/14 10:20:14;;;;;;;19.48;17.33;;;16.50;99.90;;;;;;5020178;28;20053;-90
2022/04/14 10:22:39;;;;;;;23.25;17.67;;;16.70;99.90;;;;;;5026312;28;20049;-90
2022/04/14 10:25:07;;;;;;;20.65;18.58;;;16.80;99.90;;;;;;5033696;28;20049;-87
2022/04/14 10:27:36;;;;;;;20.17;18.15;;;16.90;99.90;;;;;;5029501;28;20045;-90
2022/04/14 10:30:03;;;;;;;20.80;17.80;;;17.00;99.90;;;;;;5028071;28;20132;-77
2022/04/14 10:32:33;;;;;;;19.85;15.90;;;17.00;99.90;;;;;;5011580;28;20049;-86
2022/04/14 10:35:01;;;;;;;16.15;13.55;;;17.00;99.90;;;;;;5010647;28;20057;-84
2022/04/14 10:37:36;;;;;;;15.05;12.80;;;17.00;99.90;;;;;;5010864;28;20053;-78
2022/04/14 10:40:02;;;;;;;14.82;12.90;;;17.10;99.90;;;;;;5009665;28;20037;-84
2022/04/14 10:42:29;;;;;;;16.13;14.40;;;17.20;99.90;;;;;;5027688;28;20121;-83
2022/04/14 10:44:56;;;;;;;16.60;13.23;;;17.30;99.90;;;;;;5026551;28;20052;-81
2022/04/14 10:47:35;;;;;;;15.57;13.10;;;17.30;99.90;;;;;;5025790;28;20300;-83
2022/04/14 10:50:03;;;;;;;14.38;12.98;;;17.40;99.90;;;;;;5007051;28;20494;-79
2022/04/14 10:52:31;;;;;;;14.00;12.57;;;17.40;99.90;;;;;;5008272;28;20116;-83
2022/04/14 10:55:01;;;;;;;13.95;12.40;;;17.50;99.90;;;;;;5008531;28;20053;-77
2022/04/14 10:57:40;;;;;;;15.82;12.73;;;17.50;99.90;;;;;;5007259;28;20041;-80
2022/04/14 11:00:33;;;;;;;14.32;12.55;;;17.50;99.50;;;;;;5007723;28;20069;-83
2022/04/14 11:03:11;;;;;;;15.75;13.73;;;17.50;99.90;;;;;;5007770;28;20034;-85
2022/04/14 11:05:57;;;;;;;16.20;13.60;;;17.60;96.90;;;;;;5009151;28;20046;-87
2022/04/14 11:08:27;;;;;;;14.65;13.18;;;17.70;96.50;;;;;;5009077;28;20062;-86
2022/04/14 11:11:09;;;;;;;15.63;14.02;;;17.70;99.90;;;;;;4992341;28;20629;-85
2022/04/14 11:13:54;;;;;;;16.98;14.35;;;17.80;98.50;;;;;;5013930;28;20421;-77
2022/04/14 11:16:38;;;;;;;14.95;13.45;;;17.80;94.40;;;;;;5009666;28;20046;-82
2022/04/14 11:19:19;;;;;;;16.35;14.55;;;17.70;94.60;;;;;;5012258;28;20072;-85
2022/04/14 11:24:40;;;;;;;20.30;17.63;;;17.40;94.20;;;;;;5010810;28;20041;-85
2022/04/14 11:27:28;;;;;;;21.10;17.60;;;17.40;98.90;;;;;;5009893;28;20042;-80
2022/04/14 11:30:00;;;;;;;21.27;18.27;;;17.30;97.80;;;;;;5010131;28;20080;-81
2022/04/14 11:32:42;;;;;;;18.50;14.70;;;17.20;98.90;;;;;;5008766;28;20397;-83
2022/04/14 11:35:18;;;;;;;17.77;14.32;;;17.20;96.30;;;;;;5008179;28;20042;-78
2022/04/14 11:37:45;;;;;;;20.38;17.50;;;17.20;97.50;;;;;;5007947;28;20046;-79
2022/04/14 11:40:18;;;;;;;19.63;15.73;;;17.10;98.20;;;;;;5009607;28;20049;-78
2022/04/14 11:42:49;;;;;;;14.80;11.82;;;17.10;97.80;;;;;;5012013;28;20049;-77
2022/04/14 11:45:21;;;;;;;12.88;9.88;;;17.10;96.30;;;;;;5010996;28;20046;-77
2022/04/14 11:47:48;;;;;;;11.63;8.32;;;17.10;96.40;;;;;;5013742;28;20046;-77
2022/04/14 11:50:13;;;;;;;11.80;9.15;;;17.30;97.20;;;;;;5013543;28;20064;-77
2022/04/14 11:52:41;;;;;;;10.35;7.95;;;17.40;97.10;;;;;;5013302;28;20041;-78
2022/04/14 11:55:07;;;;;;;10.35;8.38;;;17.50;93.50;;;;;;5012560;28;20042;-77
2022/04/14 11:57:34;;;;;;;10.13;7.40;;;17.60;94.00;;;;;;5031103;28;20455;-77
2022/04/14 12:00:10;;;;;;;9.13;6.35;;;17.60;91.80;;;;;;5013071;28;20390;-78
2022/04/14 12:02:36;;;;;;;8.45;5.18;;;17.50;88.50;;;;;;5030968;28;20400;-77
2022/04/14 12:05:02;;;;;;;8.88;5.60;;;17.50;90.30;;;;;;5013377;28;20046;-77
2022/04/14 12:07:32;;;;;;;8.23;5.90;;;17.60;91.00;;;;;;5029809;28;20259;-77
2022/04/14 12:10:06;;;;;;;7.95;5.45;;;17.70;87.10;;;;;;5031005;28;20048;-77
2022/04/14 12:12:34;;;;;;;7.57;4.88;;;17.70;80.30;;;;;;5031008;28;20055;-77
2022/04/14 12:15:00;;;;;;;9.55;5.15;;;17.70;86.40;;;;;;5030153;28;20052;-77
2022/04/14 12:17:26;;;;;;;7.35;4.85;;;17.80;84.40;;;;;;5030117;28;20041;-77
2022/04/14 12:19:53;;;;;;;5.50;4.07;;;17.80;84.80;;;;;;5012760;28;20444;-77
2022/04/14 12:22:20;;;;;;;6.75;4.80;;;18.10;87.20;;;;;;5030177;28;20389;-78
2022/04/14 12:24:51;;;;;;;8.60;5.03;;;18.20;83.80;;;;;;5012410;28;20041;-78
2022/04/14 12:27:23;;;;;;;8.15;5.38;;;18.30;84.20;;;;;;5030090;28;20041;-77
2022/04/14 12:29:57;;;;;;;8.30;5.07;;;18.30;80.20;;;;;;5011865;28;20524;-77
2022/04/14 12:32:28;;;;;;;7.82;5.53;;;18.40;78.90;;;;;;5012450;28;20447;-78
2022/04/14 12:34:55;;;;;;;11.55;4.60;;;18.10;79.40;;;;;;5011722;28;20179;-80